Pagrindinis puslapis
METAR-TAF:

METAR-TAF

Oro uostai :

Siemreabas, Kambodža

platuma: 13-22N, ilguma: 103-51E, Aukštis: 15 m

Dabartinis oras

Ataskaita buvo paskelbta 32 minutes, ne 00:30 UTC
Ramus vėjas
Temperatūra 24°C
Drėgmė 83%
Slėgis 1006 hPa
Matomumas 10 km arba daugiau
Mažai debesys ne aukštis 1700 ft

METAR: VDSR 260030Z 00000KT 9999 FEW017 24/21 Q1006

Laikas: 08:02 (01:02 UTC)

Prognozė

Ataskaita buvo paskelbta 2 valandos ir 2 minutes, ne 23:00 UTC
Prognozė galioja nuo 26 metu 00 UTC su 26 metu 18 UTC
Vėjas 7 kt iš Pietvakarių
Matomumas 10 km arba daugiau
Išsisklaidę debesys ne aukštis 1700 ft

TAF: VDSR 252300Z 2600/2618 22007KT 9999 SCT017

Orai ataskaitas ir orų prognozės (METAR, TAF).

turimą stotys yra geltonos ir raudonos taškus žemėlapyje.

Perkelti pele per norėdami pamatyti stoties vardą.

Tada spustelėkite, norėdami matyti oro stebėjimo ir prognozės.

Norėdami pakeisti žemėlapį: spustelėkite ant žalios mygtukų su juodo kryžiaus žemyn,; žalią mygtuką su brūkšneliu, jei norite nutolinti; arba žalių rodyklių gretimoms žemėlapius.


METAR-TAF: